Time;durP1;ratioP1;P1;durP2;ratioP2;P2;SDS_P1;SDS_P2;PMS_P1;PMS_P2;Temp;Humidity;BMP_temperature;BMP_pressure;BME280_temperature;BME280_humidity;BME280_pressure;Samples;Min_cycle;Max_cycle;Signal;HPM_P1;HPM_P2
2023/06/03 00:01:27;;;;;;;2.07;1.97;;;21.40;43.50;;;;;;5027013;28;20887;-84
2023/06/03 00:03:54;;;;;;;1.97;1.87;;;21.40;43.40;;;;;;5030440;28;20513;-84
2023/06/03 00:06:19;;;;;;;2.30;2.10;;;21.40;43.40;;;;;;5014459;28;20722;-83
2023/06/03 00:08:45;;;;;;;1.97;1.87;;;21.40;43.40;;;;;;5032461;28;20455;-84
2023/06/03 00:11:11;;;;;;;2.13;1.93;;;21.40;43.40;;;;;;5032448;28;20222;-83
2023/06/03 00:13:38;;;;;;;2.13;2.03;;;21.40;43.40;;;;;;5030521;28;20254;-84
2023/06/03 00:16:04;;;;;;;1.70;1.60;;;21.40;43.50;;;;;;5029959;28;20456;-85
2023/06/03 00:18:30;;;;;;;1.90;1.80;;;21.40;43.50;;;;;;4997307;28;20990;-84
2023/06/03 00:20:56;;;;;;;2.30;2.10;;;21.40;43.40;;;;;;5013110;28;20447;-84
2023/06/03 00:23:21;;;;;;;2.40;2.20;;;21.40;43.50;;;;;;5018795;28;20474;-84
2023/06/03 00:25:48;;;;;;;1.93;1.83;;;21.40;43.40;;;;;;5028916;28;20226;-84
2023/06/03 00:28:13;;;;;;;2.20;2.10;;;21.40;43.30;;;;;;5026082;28;20275;-84
2023/06/03 00:30:39;;;;;;;2.03;1.93;;;21.40;43.40;;;;;;5029610;28;20553;-83
2023/06/03 00:33:05;;;;;;;2.00;1.90;;;21.40;43.40;;;;;;5031937;28;20226;-86
2023/06/03 00:35:31;;;;;;;1.97;1.87;;;21.40;43.40;;;;;;5023457;28;20228;-84
2023/06/03 00:37:57;;;;;;;2.27;2.00;;;21.40;43.50;;;;;;5023263;28;20522;-84
2023/06/03 00:40:23;;;;;;;1.80;1.70;;;21.40;43.40;;;;;;5024321;28;20438;-85
2023/06/03 00:42:48;;;;;;;2.23;2.13;;;21.40;43.50;;;;;;5023907;28;20230;-84
2023/06/03 00:45:14;;;;;;;2.60;2.00;;;21.40;43.30;;;;;;5009872;28;20227;-84
2023/06/03 00:47:40;;;;;;;2.00;1.90;;;21.40;43.40;;;;;;5031111;28;20244;-85
2023/06/03 00:50:06;;;;;;;2.37;2.27;;;21.40;43.40;;;;;;5031090;28;20230;-84
2023/06/03 00:52:33;;;;;;;1.93;1.83;;;21.40;43.40;;;;;;5029970;28;20221;-86
2023/06/03 00:55:02;;;;;;;2.10;2.00;;;21.40;43.40;;;;;;5026688;28;20467;-84
2023/06/03 00:57:27;;;;;;;2.10;2.00;;;21.40;43.30;;;;;;5032706;28;20706;-84
2023/06/03 00:59:53;;;;;;;2.03;1.93;;;21.40;43.30;;;;;;5033374;28;20504;-85
2023/06/03 01:02:19;;;;;;;2.03;1.93;;;21.40;43.40;;;;;;5002171;28;20227;-84
2023/06/03 01:04:47;;;;;;;2.00;1.90;;;21.40;43.30;;;;;;5027313;28;20264;-85
2023/06/03 01:07:20;;;;;;;2.53;2.10;;;21.40;43.30;;;;;;5032711;28;20475;-84
2023/06/03 01:09:58;;;;;;;2.30;2.20;;;21.40;43.30;;;;;;5031369;28;21591;-84
2023/06/03 01:12:35;;;;;;;1.93;1.83;;;21.40;43.50;;;;;;5022279;28;20494;-86
2023/06/03 01:15:07;;;;;;;2.33;2.13;;;21.40;43.30;;;;;;5002204;28;21038;-85
2023/06/03 01:17:39;;;;;;;2.10;2.00;;;21.40;43.40;;;;;;5021774;28;20476;-84
2023/06/03 01:20:09;;;;;;;2.30;2.20;;;21.40;43.30;;;;;;5021113;28;20522;-85
2023/06/03 01:22:41;;;;;;;2.27;2.07;;;21.40;43.30;;;;;;5013825;28;20687;-85
2023/06/03 01:25:09;;;;;;;2.20;2.10;;;21.40;43.30;;;;;;5019585;28;21035;-84
2023/06/03 01:27:38;;;;;;;1.90;1.80;;;21.40;43.30;;;;;;5032235;28;20502;-84
2023/06/03 01:30:07;;;;;;;1.90;1.80;;;21.40;43.30;;;;;;5006421;28;20522;-85
2023/06/03 01:32:33;;;;;;;2.00;1.90;;;21.30;43.30;;;;;;5033200;28;20469;-86
2023/06/03 01:34:59;;;;;;;2.00;1.90;;;21.40;43.40;;;;;;5028693;28;20479;-85
2023/06/03 01:37:26;;;;;;;2.53;2.20;;;21.40;43.40;;;;;;5020358;28;20234;-85
2023/06/03 01:39:52;;;;;;;2.00;1.90;;;21.40;43.40;;;;;;5027443;28;20464;-84
2023/06/03 01:42:18;;;;;;;2.37;2.27;;;21.40;43.40;;;;;;5015080;28;20448;-84
2023/06/03 01:44:44;;;;;;;2.10;2.00;;;21.40;43.40;;;;;;5018438;28;20462;-85
2023/06/03 01:47:10;;;;;;;2.17;2.00;;;21.40;43.40;;;;;;4997855;28;20230;-86
2023/06/03 01:49:36;;;;;;;2.40;2.10;;;21.40;43.30;;;;;;5024528;28;20467;-84
2023/06/03 01:52:02;;;;;;;2.03;1.93;;;21.40;43.30;;;;;;5016324;28;20468;-86
2023/06/03 01:54:28;;;;;;;2.20;2.10;;;21.40;43.30;;;;;;5026646;28;20296;-83
2023/06/03 01:56:55;;;;;;;2.13;2.00;;;21.40;43.40;;;;;;5016116;28;20554;-84
2023/06/03 01:59:25;;;;;;;1.90;1.80;;;21.40;43.30;;;;;;5032325;28;20505;-83
2023/06/03 02:01:57;;;;;;;2.37;2.17;;;21.40;43.30;;;;;;5030506;28;20548;-84
2023/06/03 02:04:23;;;;;;;2.03;1.90;;;21.40;43.30;;;;;;5030786;28;20461;-83
2023/06/03 02:06:52;;;;;;;1.97;1.87;;;21.30;43.20;;;;;;5029138;28;20490;-86
2023/06/03 02:09:24;;;;;;;2.30;2.20;;;21.30;43.20;;;;;;5016655;28;20452;-83
2023/06/03 02:11:54;;;;;;;2.20;2.10;;;21.30;43.20;;;;;;5034974;28;20451;-84
2023/06/03 02:14:19;;;;;;;2.37;2.27;;;21.40;43.30;;;;;;5028517;28;20447;-83
2023/06/03 02:16:45;;;;;;;2.67;2.57;;;21.30;43.20;;;;;;5024209;28;20473;-84
2023/06/03 02:19:16;;;;;;;2.60;2.40;;;21.30;43.20;;;;;;5034744;28;20229;-83
2023/06/03 02:21:43;;;;;;;2.03;1.93;;;21.30;43.20;;;;;;5024626;28;20836;-86
2023/06/03 02:24:09;;;;;;;2.10;2.00;;;21.30;43.20;;;;;;5021143;28;21020;-84
2023/06/03 02:26:35;;;;;;;2.57;2.10;;;21.30;43.20;;;;;;5027015;28;20471;-84
2023/06/03 02:29:02;;;;;;;2.60;2.40;;;21.30;43.20;;;;;;5005205;28;20219;-84
2023/06/03 02:31:28;;;;;;;2.30;2.20;;;21.30;43.30;;;;;;5035657;28;20517;-86
2023/06/03 02:33:54;;;;;;;2.37;2.17;;;21.30;43.20;;;;;;5019744;28;20447;-84
2023/06/03 02:36:19;;;;;;;2.93;2.70;;;21.40;43.30;;;;;;5033115;28;20469;-84
2023/06/03 02:38:47;;;;;;;2.30;2.10;;;21.30;43.20;;;;;;5030464;28;20233;-84
2023/06/03 02:41:13;;;;;;;2.20;2.10;;;21.30;43.20;;;;;;5026124;28;20211;-84
2023/06/03 02:43:40;;;;;;;2.13;2.03;;;21.30;43.20;;;;;;5033102;28;20513;-84
2023/06/03 02:46:05;;;;;;;2.20;2.00;;;21.30;43.20;;;;;;5026349;28;20460;-84
2023/06/03 02:48:31;;;;;;;1.93;1.80;;;21.30;44.00;;;;;;5035233;28;20798;-83
2023/06/03 02:50:56;;;;;;;2.43;2.23;;;21.30;43.20;;;;;;5020349;28;20306;-85
2023/06/03 02:53:22;;;;;;;2.30;2.20;;;21.30;43.30;;;;;;5022765;28;20252;-85
2023/06/03 02:55:47;;;;;;;2.20;2.10;;;21.30;43.20;;;;;;5028575;28;20359;-83
2023/06/03 02:58:15;;;;;;;2.30;2.20;;;21.30;43.20;;;;;;5025801;28;20882;-83
2023/06/03 03:00:41;;;;;;;2.10;1.97;;;21.30;43.20;;;;;;5020991;28;20347;-84
2023/06/03 03:03:06;;;;;;;2.17;2.00;;;21.30;43.20;;;;;;5035275;28;20459;-84
2023/06/03 03:05:32;;;;;;;2.53;2.33;;;21.30;43.20;;;;;;5031054;28;20591;-84
2023/06/03 03:07:58;;;;;;;2.20;2.10;;;21.30;43.20;;;;;;5030000;28;20659;-83
2023/06/03 03:10:25;;;;;;;2.30;2.20;;;21.30;43.20;;;;;;5026909;28;20246;-84
2023/06/03 03:12:51;;;;;;;1.90;1.80;;;21.30;43.20;;;;;;5025933;28;20463;-83
2023/06/03 03:15:16;;;;;;;2.07;1.97;;;21.30;43.20;;;;;;5020696;28;20522;-83
2023/06/03 03:17:42;;;;;;;2.10;2.00;;;21.30;43.20;;;;;;5031364;28;20276;-84
2023/06/03 03:20:08;;;;;;;2.20;2.07;;;21.30;43.20;;;;;;5017092;28;20233;-85
2023/06/03 03:22:34;;;;;;;2.27;2.17;;;21.30;43.20;;;;;;5033378;28;20296;-83
2023/06/03 03:25:00;;;;;;;2.00;1.90;;;21.30;43.20;;;;;;5035372;28;20459;-85
2023/06/03 03:27:25;;;;;;;1.90;1.80;;;21.30;43.20;;;;;;5009606;28;20938;-84
2023/06/03 03:29:54;;;;;;;2.00;1.90;;;21.30;43.20;;;;;;5013927;28;20234;-86
2023/06/03 03:32:20;;;;;;;2.63;2.10;;;21.30;43.20;;;;;;5005412;28;20324;-85
2023/06/03 03:34:54;;;;;;;2.60;2.40;;;21.30;43.20;;;;;;5018607;28;20455;-84
2023/06/03 03:37:20;;;;;;;2.23;2.13;;;21.30;43.20;;;;;;5027400;28;21024;-84
2023/06/03 03:39:45;;;;;;;2.80;2.70;;;21.30;43.20;;;;;;5020698;28;20476;-84
2023/06/03 03:42:11;;;;;;;2.73;2.60;;;21.30;43.20;;;;;;5001410;28;20271;-84
2023/06/03 03:44:37;;;;;;;2.20;2.00;;;21.30;43.20;;;;;;5006338;28;20577;-89
2023/06/03 03:47:02;;;;;;;2.00;1.90;;;21.30;43.20;;;;;;5030544;28;20234;-88
2023/06/03 03:49:30;;;;;;;2.27;2.17;;;21.30;43.20;;;;;;5029410;28;20509;-87
2023/06/03 03:51:57;;;;;;;1.90;1.80;;;21.30;43.20;;;;;;5032359;28;20222;-86
2023/06/03 03:54:23;;;;;;;2.83;2.63;;;21.30;43.20;;;;;;5029226;28;20465;-85
2023/06/03 03:56:54;;;;;;;2.57;2.37;;;21.30;43.20;;;;;;5026913;28;20539;-86
2023/06/03 03:59:19;;;;;;;2.37;2.17;;;21.30;43.10;;;;;;5007058;28;20451;-84
2023/06/03 04:01:45;;;;;;;2.40;2.30;;;21.30;43.10;;;;;;5005330;28;20466;-86
2023/06/03 04:04:13;;;;;;;2.40;2.30;;;21.30;43.20;;;;;;5028094;28;21147;-86
2023/06/03 04:06:39;;;;;;;2.27;2.17;;;21.30;43.10;;;;;;5026948;28;20318;-85
2023/06/03 04:09:06;;;;;;;3.00;2.70;;;21.30;43.10;;;;;;5008065;28;20809;-87
2023/06/03 04:11:44;;;;;;;2.03;1.93;;;21.30;43.10;;;;;;5032592;28;20774;-85
2023/06/03 04:14:14;;;;;;;2.23;2.13;;;21.30;43.10;;;;;;5025095;28;20516;-87
2023/06/03 04:16:48;;;;;;;2.33;2.23;;;21.30;43.10;;;;;;5028927;28;20529;-85
2023/06/03 04:19:19;;;;;;;2.17;1.97;;;21.30;43.20;;;;;;5015084;28;20464;-85
2023/06/03 04:21:45;;;;;;;2.60;2.20;;;21.30;43.10;;;;;;5023869;28;20486;-87
2023/06/03 04:24:11;;;;;;;2.30;2.20;;;21.30;43.10;;;;;;5029025;28;20524;-87
2023/06/03 04:26:36;;;;;;;2.80;2.60;;;21.30;43.10;;;;;;5028048;28;20475;-85
2023/06/03 04:29:02;;;;;;;2.23;2.13;;;21.30;43.10;;;;;;5024475;28;20670;-85
2023/06/03 04:31:28;;;;;;;2.03;1.90;;;21.30;43.10;;;;;;5014611;28;20239;-87
2023/06/03 04:33:54;;;;;;;2.30;2.20;;;21.30;43.10;;;;;;5033713;28;21001;-85
2023/06/03 04:36:20;;;;;;;2.10;1.90;;;21.30;43.10;;;;;;5025790;28;20694;-85
2023/06/03 04:38:46;;;;;;;2.47;2.37;;;21.30;43.10;;;;;;5024200;28;20217;-87
2023/06/03 04:41:14;;;;;;;2.10;2.00;;;21.30;43.10;;;;;;5013170;28;20576;-87
2023/06/03 04:43:40;;;;;;;2.60;2.40;;;21.30;43.10;;;;;;5010333;28;20836;-85
2023/06/03 04:46:07;;;;;;;2.50;2.30;;;21.30;43.10;;;;;;5037695;28;20459;-86
2023/06/03 04:48:33;;;;;;;2.57;2.37;;;21.30;43.00;;;;;;5027342;28;21791;-85
2023/06/03 04:51:00;;;;;;;2.60;2.40;;;21.30;43.10;;;;;;5022960;28;20517;-86
2023/06/03 04:53:26;;;;;;;2.77;2.57;;;21.30;43.10;;;;;;5034389;28;20565;-85
2023/06/03 04:55:51;;;;;;;2.17;2.03;;;21.30;43.00;;;;;;5038799;28;20464;-85
2023/06/03 04:58:18;;;;;;;2.17;2.07;;;21.30;43.00;;;;;;5039227;28;20233;-86
2023/06/03 05:00:45;;;;;;;2.50;2.40;;;21.30;42.90;;;;;;5042603;28;20766;-85
2023/06/03 05:03:10;;;;;;;2.40;2.30;;;21.30;43.00;;;;;;5025789;28;20542;-86
2023/06/03 05:05:46;;;;;;;4.33;2.27;;;21.30;43.00;;;;;;5014047;28;20451;-86
2023/06/03 05:08:12;;;;;;;2.77;2.60;;;21.30;43.00;;;;;;5024014;28;20256;-85
2023/06/03 05:10:38;;;;;;;2.50;2.30;;;21.30;42.90;;;;;;5029765;28;20959;-86
2023/06/03 05:13:05;;;;;;;2.37;2.27;;;21.30;42.90;;;;;;5035415;28;20458;-85
2023/06/03 05:15:33;;;;;;;2.80;2.60;;;21.30;42.90;;;;;;5011657;28;20624;-85
2023/06/03 05:17:59;;;;;;;2.17;2.07;;;21.30;42.90;;;;;;5026251;28;20471;-84
2023/06/03 05:20:25;;;;;;;2.10;2.00;;;21.30;42.90;;;;;;5022324;28;20459;-86
2023/06/03 05:22:51;;;;;;;2.70;2.50;;;21.30;42.90;;;;;;5040986;28;20478;-85
2023/06/03 05:25:16;;;;;;;2.23;2.13;;;21.30;42.90;;;;;;5040451;28;20245;-85
2023/06/03 05:27:42;;;;;;;2.47;2.37;;;21.30;42.90;;;;;;5026660;28;20290;-86
2023/06/03 05:30:08;;;;;;;2.40;2.20;;;21.30;42.90;;;;;;5016866;28;21146;-85
2023/06/03 05:32:33;;;;;;;2.50;2.33;;;21.30;42.90;;;;;;5016453;28;20750;-85
2023/06/03 05:34:59;;;;;;;2.10;2.00;;;21.30;42.80;;;;;;5002741;28;20440;-84
2023/06/03 05:37:24;;;;;;;2.63;2.43;;;21.30;42.90;;;;;;5008788;28;20322;-86
2023/06/03 05:39:50;;;;;;;2.20;2.10;;;21.30;42.80;;;;;;5021439;28;20223;-83
2023/06/03 05:42:15;;;;;;;2.83;2.27;;;21.30;42.90;;;;;;5017766;28;20215;-84
2023/06/03 05:44:41;;;;;;;2.40;2.20;;;21.30;42.80;;;;;;5016348;28;20222;-84
2023/06/03 05:47:07;;;;;;;2.30;2.10;;;21.40;42.90;;;;;;5018176;28;20242;-84
2023/06/03 05:49:32;;;;;;;2.40;2.30;;;21.30;42.80;;;;;;5015175;28;20280;-84
2023/06/03 05:51:58;;;;;;;2.40;2.30;;;21.30;42.80;;;;;;5000834;28;20219;-84
2023/06/03 05:54:28;;;;;;;2.30;2.10;;;21.30;42.80;;;;;;5016804;28;20227;-83
2023/06/03 05:56:55;;;;;;;2.20;2.10;;;21.40;42.90;;;;;;5013981;28;20234;-83
2023/06/03 05:59:20;;;;;;;4.23;2.30;;;21.40;42.80;;;;;;5021029;28;20464;-83
2023/06/03 06:01:46;;;;;;;2.53;2.30;;;21.30;42.70;;;;;;5015658;28;21438;-83
2023/06/03 06:04:11;;;;;;;2.43;2.23;;;21.40;42.70;;;;;;4999825;28;20276;-83
2023/06/03 06:06:37;;;;;;;2.23;2.13;;;21.40;42.70;;;;;;5017126;28;20325;-83
2023/06/03 06:09:02;;;;;;;2.30;2.10;;;21.40;42.70;;;;;;5018437;28;20985;-82
2023/06/03 06:11:28;;;;;;;1.97;1.87;;;21.40;42.70;;;;;;5021660;28;20678;-85
2023/06/03 06:13:53;;;;;;;2.30;2.20;;;21.40;42.60;;;;;;5021094;28;20832;-83
2023/06/03 06:16:19;;;;;;;2.10;2.00;;;21.40;42.60;;;;;;5004413;28;21087;-85
2023/06/03 06:18:45;;;;;;;3.10;2.90;;;21.40;42.60;;;;;;5035775;28;20943;-84
2023/06/03 06:21:10;;;;;;;2.60;2.27;;;21.40;42.60;;;;;;5039031;28;20226;-83
2023/06/03 06:23:36;;;;;;;2.10;2.00;;;21.40;42.70;;;;;;5042388;28;20584;-83
2023/06/03 06:26:01;;;;;;;2.30;2.20;;;21.40;42.60;;;;;;5033839;28;20253;-85
2023/06/03 06:28:27;;;;;;;2.40;2.20;;;21.40;42.60;;;;;;5039289;28;20356;-85
2023/06/03 06:31:02;;;;;;;1.90;1.80;;;21.40;43.00;;;;;;5041137;28;20283;-86
2023/06/03 06:33:28;;;;;;;2.17;2.07;;;21.40;42.60;;;;;;5037749;28;20446;-84
2023/06/03 06:35:54;;;;;;;2.73;1.80;;;21.40;42.50;;;;;;5028892;28;20464;-83
2023/06/03 06:38:20;;;;;;;2.30;2.20;;;21.40;42.50;;;;;;5020689;28;20460;-86
2023/06/03 06:40:45;;;;;;;3.00;2.03;;;21.40;42.50;;;;;;5004962;28;20365;-84
2023/06/03 06:43:21;;;;;;;2.30;2.10;;;21.40;42.30;;;;;;5024029;28;20660;-83
2023/06/03 06:45:47;;;;;;;2.70;1.93;;;21.50;42.40;;;;;;5033529;28;20221;-85
2023/06/03 06:48:13;;;;;;;2.10;2.00;;;21.50;42.30;;;;;;5032595;28;22890;-84
2023/06/03 06:50:50;;;;;;;2.57;2.17;;;21.50;42.20;;;;;;5031518;28;20464;-84
2023/06/03 06:53:18;;;;;;;2.70;2.50;;;21.50;42.20;;;;;;5020038;28;20451;-83
2023/06/03 06:55:50;;;;;;;2.00;1.90;;;21.50;42.20;;;;;;5025306;28;20493;-84
2023/06/03 06:58:17;;;;;;;2.37;2.17;;;21.50;43.00;;;;;;5030263;28;20472;-84
2023/06/03 07:00:42;;;;;;;2.20;2.10;;;21.50;42.30;;;;;;5031706;28;20590;-84
2023/06/03 07:03:09;;;;;;;2.37;2.20;;;21.50;42.30;;;;;;5036866;28;20478;-85
2023/06/03 07:05:35;;;;;;;2.20;2.10;;;21.50;42.30;;;;;;5002469;28;20241;-85
2023/06/03 07:08:00;;;;;;;2.17;2.07;;;21.50;42.40;;;;;;5007502;28;20961;-84
2023/06/03 07:10:27;;;;;;;2.53;2.20;;;21.50;42.40;;;;;;5032097;28;20218;-89
2023/06/03 07:12:53;;;;;;;1.90;1.80;;;21.40;42.50;;;;;;5026244;28;20667;-84
2023/06/03 07:15:20;;;;;;;1.90;1.80;;;21.50;42.50;;;;;;5032574;28;20494;-86
2023/06/03 07:17:50;;;;;;;2.30;2.10;;;21.40;42.30;;;;;;5026333;28;20516;-84
2023/06/03 07:20:20;;;;;;;2.47;2.30;;;21.50;42.40;;;;;;5008684;28;20813;-85
2023/06/03 07:22:46;;;;;;;1.93;1.83;;;21.40;42.50;;;;;;5008506;28;20464;-85
2023/06/03 07:25:31;;;;;;;2.40;2.20;;;21.40;42.40;;;;;;5021354;28;20460;-85
2023/06/03 07:27:57;;;;;;;2.13;1.93;;;21.50;42.50;;;;;;5001031;28;20935;-85
2023/06/03 07:30:22;;;;;;;2.20;1.90;;;21.40;42.40;;;;;;5027804;28;20478;-84
2023/06/03 07:32:49;;;;;;;2.07;1.97;;;21.50;42.50;;;;;;5006046;28;22179;-85
2023/06/03 07:35:19;;;;;;;1.87;1.77;;;21.50;42.50;;;;;;5007194;28;20225;-85
2023/06/03 07:37:45;;;;;;;2.70;1.97;;;21.40;42.40;;;;;;5011894;28;20447;-84
2023/06/03 07:40:18;;;;;;;1.90;1.80;;;21.40;42.40;;;;;;5020117;28;20506;-83
2023/06/03 07:42:46;;;;;;;2.30;2.10;;;21.40;42.40;;;;;;5017417;28;20226;-83
2023/06/03 07:45:15;;;;;;;2.03;1.93;;;21.40;42.40;;;;;;5034462;28;20714;-84
2023/06/03 07:47:41;;;;;;;2.03;1.93;;;21.40;42.50;;;;;;5030711;28;20471;-83
2023/06/03 07:50:27;;;;;;;1.90;1.80;;;21.40;42.40;;;;;;5019469;28;20486;-83
2023/06/03 07:53:00;;;;;;;2.50;2.30;;;21.50;42.40;;;;;;5038019;28;20226;-83
2023/06/03 07:55:26;;;;;;;2.23;1.90;;;21.40;42.40;;;;;;5036969;28;20443;-83
2023/06/03 07:57:51;;;;;;;1.97;1.87;;;21.40;42.40;;;;;;5023929;28;20460;-83
2023/06/03 08:00:17;;;;;;;1.70;1.60;;;21.40;42.40;;;;;;5023588;28;20457;-85
2023/06/03 08:02:44;;;;;;;2.23;1.80;;;21.40;42.40;;;;;;5033404;28;20294;-83
2023/06/03 08:05:10;;;;;;;1.80;1.70;;;21.40;42.50;;;;;;5037469;28;20233;-82
2023/06/03 08:07:36;;;;;;;1.80;1.70;;;21.40;42.40;;;;;;5036379;28;20467;-83
2023/06/03 08:10:03;;;;;;;2.00;1.90;;;21.40;42.40;;;;;;5037610;28;20749;-83
2023/06/03 08:12:33;;;;;;;2.07;1.90;;;21.40;42.50;;;;;;5003505;28;20980;-83
2023/06/03 08:15:01;;;;;;;1.77;1.67;;;21.50;42.50;;;;;;5024907;28;20447;-83
2023/06/03 08:17:40;;;;;;;1.90;1.80;;;21.40;42.40;;;;;;5042002;28;20467;-83
2023/06/03 08:20:09;;;;;;;1.60;1.50;;;21.40;42.40;;;;;;5038233;28;21463;-83
2023/06/03 08:22:43;;;;;;;1.70;1.60;;;21.50;42.40;;;;;;5033781;28;20490;-83
2023/06/03 08:25:09;;;;;;;1.93;1.50;;;21.40;42.40;;;;;;5030858;28;20482;-83
2023/06/03 08:27:36;;;;;;;2.37;2.17;;;21.40;42.30;;;;;;5012017;28;20442;-83
2023/06/03 08:30:05;;;;;;;1.70;1.60;;;21.40;42.30;;;;;;5026289;28;20820;-84
2023/06/03 08:32:35;;;;;;;1.60;1.50;;;21.40;42.30;;;;;;5040973;28;20458;-83
2023/06/03 08:35:01;;;;;;;2.30;2.00;;;21.40;42.30;;;;;;5035788;28;20448;-84
2023/06/03 08:37:27;;;;;;;1.60;1.50;;;21.40;42.30;;;;;;5037061;28;20478;-83
2023/06/03 08:39:54;;;;;;;1.57;1.47;;;21.50;42.40;;;;;;5036458;28;20447;-83
2023/06/03 08:42:23;;;;;;;2.00;1.73;;;21.40;42.30;;;;;;5023487;28;20235;-83
2023/06/03 08:45:03;;;;;;;2.07;1.70;;;21.40;42.30;;;;;;5032263;28;20471;-83
2023/06/03 08:48:04;;;;;;;2.53;1.70;;;21.40;42.20;;;;;;5034300;28;20471;-82
2023/06/03 08:50:35;;;;;;;1.50;1.40;;;21.40;42.30;;;;;;5017599;28;20547;-83
2023/06/03 08:53:08;;;;;;;1.73;1.63;;;21.40;42.30;;;;;;5002812;28;20497;-83
2023/06/03 08:55:36;;;;;;;1.50;1.40;;;21.40;42.20;;;;;;5026726;28;20566;-84
2023/06/03 08:58:26;;;;;;;1.57;1.47;;;21.40;42.30;;;;;;5039574;28;20467;-83
2023/06/03 09:00:57;;;;;;;1.60;1.50;;;21.40;42.30;;;;;;5007924;28;20517;-83
2023/06/03 09:03:23;;;;;;;1.80;1.70;;;21.40;42.20;;;;;;5031631;28;20493;-83
2023/06/03 09:05:49;;;;;;;4.00;1.60;;;21.40;42.20;;;;;;5015328;28;20530;-83
2023/06/03 09:08:17;;;;;;;1.57;1.47;;;21.50;42.30;;;;;;5030427;28;20448;-85
2023/06/03 09:10:45;;;;;;;1.50;1.40;;;21.40;42.20;;;;;;5034944;28;20466;-83
2023/06/03 09:13:13;;;;;;;1.60;1.50;;;21.40;42.20;;;;;;5039777;28;20458;-83
2023/06/03 09:15:41;;;;;;;1.53;1.43;;;21.50;42.30;;;;;;5013836;28;20470;-82
2023/06/03 09:18:06;;;;;;;3.10;1.60;;;21.40;42.20;;;;;;5033946;28;20575;-83
2023/06/03 09:20:33;;;;;;;1.60;1.50;;;21.50;42.30;;;;;;5016823;28;21093;-83
2023/06/03 09:22:59;;;;;;;1.57;1.47;;;21.50;42.30;;;;;;5038364;28;20218;-83
2023/06/03 09:25:25;;;;;;;1.70;1.60;;;21.50;42.30;;;;;;5039896;28;20464;-84
2023/06/03 09:27:51;;;;;;;1.60;1.50;;;21.50;42.30;;;;;;5020592;28;20952;-83
2023/06/03 09:30:16;;;;;;;1.37;1.27;;;21.50;42.30;;;;;;5036747;28;20327;-83
2023/06/03 09:32:42;;;;;;;1.50;1.40;;;21.50;42.30;;;;;;5041885;28;20264;-83
2023/06/03 09:35:08;;;;;;;1.30;1.20;;;21.50;42.30;;;;;;5033773;28;20268;-83
2023/06/03 09:37:34;;;;;;;1.47;1.37;;;21.50;42.30;;;;;;5035980;28;20225;-83
2023/06/03 09:40:00;;;;;;;1.63;1.53;;;21.50;42.20;;;;;;5016076;28;20222;-83
2023/06/03 09:42:45;;;;;;;1.63;1.40;;;21.50;42.20;;;;;;5023319;28;20824;-83
2023/06/03 09:45:31;;;;;;;1.50;1.40;;;21.50;42.30;;;;;;5022247;28;20486;-83
2023/06/03 09:48:00;;;;;;;1.50;1.40;;;21.50;42.20;;;;;;5027580;28;20460;-83
2023/06/03 09:50:28;;;;;;;1.50;1.40;;;21.50;42.20;;;;;;5032340;28;20440;-83
2023/06/03 09:52:54;;;;;;;1.53;1.33;;;21.50;42.20;;;;;;5007380;28;20475;-83
2023/06/03 09:55:22;;;;;;;1.50;1.40;;;21.50;42.20;;;;;;5032775;28;20530;-83
2023/06/03 09:58:09;;;;;;;1.43;1.33;;;21.50;42.20;;;;;;5011625;28;20447;-84
2023/06/03 10:00:48;;;;;;;1.40;1.30;;;21.50;42.20;;;;;;5041378;28;20977;-83
2023/06/03 10:03:14;;;;;;;1.27;1.17;;;21.50;42.20;;;;;;5031569;28;20515;-83
2023/06/03 10:05:41;;;;;;;1.50;1.40;;;21.50;42.20;;;;;;5036534;28;20476;-83
2023/06/03 10:08:07;;;;;;;1.20;1.10;;;21.50;42.20;;;;;;5039231;28;20996;-83
2023/06/03 10:10:33;;;;;;;1.50;1.10;;;21.50;42.20;;;;;;5038169;28;20548;-83
2023/06/03 10:13:21;;;;;;;1.20;1.10;;;21.50;42.20;;;;;;5041195;28;20493;-84
2023/06/03 10:15:48;;;;;;;1.33;1.23;;;21.50;42.20;;;;;;5034445;28;21006;-83
2023/06/03 10:18:14;;;;;;;1.13;1.03;;;21.50;42.40;;;;;;5024593;28;20489;-83
2023/06/03 10:20:42;;;;;;;1.40;1.30;;;21.50;42.20;;;;;;5029602;28;20463;-84
2023/06/03 10:23:09;;;;;;;1.93;1.30;;;21.50;42.20;;;;;;5016225;28;20686;-83
2023/06/03 10:25:43;;;;;;;4.10;2.60;;;21.50;42.20;;;;;;5005229;28;21078;-84
2023/06/03 10:28:13;;;;;;;1.40;1.30;;;21.50;42.10;;;;;;5036060;28;20490;-85
2023/06/03 10:30:40;;;;;;;1.40;1.30;;;21.50;42.10;;;;;;5035055;28;20493;-83
2023/06/03 10:33:08;;;;;;;1.30;1.20;;;21.50;42.20;;;;;;5037457;28;20459;-83
2023/06/03 10:35:36;;;;;;;1.47;1.37;;;21.50;42.20;;;;;;5028993;28;22135;-83
2023/06/03 10:38:03;;;;;;;1.47;1.37;;;21.50;42.20;;;;;;5033619;28;20466;-83
2023/06/03 10:40:29;;;;;;;1.30;1.20;;;21.50;42.20;;;;;;5031903;28;20895;-83
2023/06/03 10:42:56;;;;;;;1.40;1.30;;;21.50;42.20;;;;;;5017153;28;20448;-83
2023/06/03 10:45:23;;;;;;;1.50;1.40;;;21.50;42.20;;;;;;5015262;28;20443;-84
2023/06/03 10:47:56;;;;;;;1.30;1.20;;;21.50;42.20;;;;;;5029389;28;20421;-83
2023/06/03 10:50:31;;;;;;;1.50;1.40;;;21.50;42.10;;;;;;5031464;28;20551;-84
2023/06/03 10:53:32;;;;;;;1.30;1.20;;;21.50;42.20;;;;;;5042533;28;20462;-83
2023/06/03 10:56:21;;;;;;;1.30;1.20;;;21.50;42.10;;;;;;4983408;28;20453;-83
2023/06/03 10:58:57;;;;;;;1.20;1.10;;;21.50;42.20;;;;;;5024337;28;21947;-83
2023/06/03 11:01:43;;;;;;;1.40;1.23;;;21.50;42.20;;;;;;5039493;28;20466;-83
2023/06/03 11:04:08;;;;;;;1.20;1.10;;;21.50;42.90;;;;;;5032012;28;20478;-83
2023/06/03 11:06:34;;;;;;;1.20;1.10;;;21.50;42.20;;;;;;5006202;28;20535;-83
2023/06/03 11:09:05;;;;;;;1.10;1.10;;;21.50;42.10;;;;;;5030173;28;20218;-84
2023/06/03 11:11:43;;;;;;;1.57;1.40;;;21.50;42.10;;;;;;5001967;28;20460;-85
2023/06/03 11:14:40;;;;;;;1.17;1.07;;;21.50;42.10;;;;;;5038788;28;20466;-83
2023/06/03 11:17:06;;;;;;;1.50;1.40;;;21.50;42.10;;;;;;5033822;28;20474;-85
2023/06/03 11:19:38;;;;;;;1.30;1.20;;;21.50;42.90;;;;;;5022342;28;20457;-83
2023/06/03 11:22:10;;;;;;;1.27;1.17;;;21.50;42.10;;;;;;5004230;28;20460;-83
2023/06/03 11:24:39;;;;;;;1.30;1.20;;;21.50;42.20;;;;;;5020482;28;20949;-83
2023/06/03 11:27:10;;;;;;;1.23;1.13;;;21.50;42.10;;;;;;5040903;28;20465;-83
2023/06/03 11:29:57;;;;;;;1.40;1.20;;;21.50;42.10;;;;;;5039599;28;20466;-83
2023/06/03 11:32:29;;;;;;;1.20;1.10;;;21.50;42.10;;;;;;5038549;28;20497;-83
2023/06/03 11:35:03;;;;;;;1.10;1.00;;;21.50;42.10;;;;;;5042706;28;20455;-84
2023/06/03 11:37:40;;;;;;;1.40;1.30;;;21.50;42.10;;;;;;5034983;28;20565;-83
2023/06/03 11:40:20;;;;;;;1.30;1.20;;;21.50;42.20;;;;;;5036230;28;20450;-83
2023/06/03 11:42:51;;;;;;;1.30;1.20;;;21.50;42.10;;;;;;5023040;28;20817;-83
2023/06/03 11:45:17;;;;;;;1.10;1.00;;;21.50;42.20;;;;;;5011457;28;20478;-83
2023/06/03 11:47:52;;;;;;;1.33;1.23;;;21.50;42.20;;;;;;5033039;28;20479;-84
2023/06/03 11:50:19;;;;;;;1.50;1.40;;;21.60;42.20;;;;;;5008799;28;20281;-83
2023/06/03 11:52:45;;;;;;;1.20;1.10;;;21.60;42.20;;;;;;5038736;28;20550;-85
2023/06/03 11:55:21;;;;;;;1.57;1.47;;;21.50;42.10;;;;;;5032259;28;20477;-83
2023/06/03 11:57:46;;;;;;;1.13;1.03;;;21.60;42.20;;;;;;5037824;28;20380;-83
2023/06/03 12:00:13;;;;;;;1.20;1.10;;;21.60;42.20;;;;;;5031050;28;20541;-83
2023/06/03 12:02:40;;;;;;;1.10;1.00;;;21.60;42.20;;;;;;5036415;28;20630;-83
2023/06/03 12:05:07;;;;;;;2.60;1.50;;;21.60;42.20;;;;;;5041798;28;20446;-84
2023/06/03 12:07:33;;;;;;;1.63;1.53;;;21.60;42.20;;;;;;5001631;28;20467;-83
2023/06/03 12:09:59;;;;;;;1.37;1.27;;;21.60;42.20;;;;;;5027456;28;20455;-83
2023/06/03 12:12:25;;;;;;;1.30;1.20;;;21.60;42.20;;;;;;5039389;28;20230;-84
2023/06/03 12:14:50;;;;;;;1.73;1.30;;;21.60;42.20;;;;;;5020697;28;20226;-83
2023/06/03 12:17:19;;;;;;;2.97;1.30;;;21.60;42.20;;;;;;5022789;28;20508;-83
2023/06/03 12:19:49;;;;;;;1.40;1.30;;;21.60;42.20;;;;;;5034903;28;20229;-83
2023/06/03 12:22:23;;;;;;;1.40;1.30;;;21.60;42.20;;;;;;5033499;28;20459;-83
2023/06/03 12:24:49;;;;;;;1.40;1.30;;;21.60;42.20;;;;;;5036948;28;20983;-83
2023/06/03 12:27:22;;;;;;;1.20;1.10;;;21.60;42.20;;;;;;5029726;28;20575;-83
2023/06/03 12:29:56;;;;;;;1.33;1.23;;;21.60;42.20;;;;;;5038200;28;20326;-83
2023/06/03 12:32:23;;;;;;;1.30;1.20;;;21.60;42.20;;;;;;5013673;28;20459;-84
2023/06/03 12:34:49;;;;;;;1.20;1.10;;;21.60;42.20;;;;;;5036369;28;20975;-83
2023/06/03 12:37:28;;;;;;;1.50;1.20;;;21.60;42.20;;;;;;5036116;28;20516;-83
2023/06/03 12:39:55;;;;;;;1.20;1.10;;;21.60;42.20;;;;;;5039716;28;20229;-83
2023/06/03 12:42:32;;;;;;;1.57;1.47;;;21.60;42.20;;;;;;5030756;28;20481;-83
2023/06/03 12:44:58;;;;;;;1.37;1.20;;;21.60;42.20;;;;;;5022710;28;20463;-83
2023/06/03 12:47:24;;;;;;;1.20;1.10;;;21.60;42.20;;;;;;5026490;28;21047;-85
2023/06/03 12:50:07;;;;;;;1.10;1.00;;;21.60;42.20;;;;;;5030784;28;20241;-83
2023/06/03 12:52:38;;;;;;;1.30;1.20;;;21.60;42.20;;;;;;5029987;28;20222;-84
2023/06/03 12:55:09;;;;;;;1.40;1.30;;;21.60;42.20;;;;;;5036959;28;20485;-83